AGUILA SCEL-SCEL
Flight info
| Callsign | AGUILA |
|---|---|
| Flight time | 0h 5m |
| Altitude | FL350 |
| Route | RECO LITORAL SUR DESDE ZAPALLAR |
| Aircraft | E3CF/H-S/N |
Departure
| Time | 2026-05-07 21:16 |
|---|---|
| Airport | Comodoro Arturo Merino Benítez International Airport (SCEL) |
Arrival
| Time | 2026-05-07 21:22 |
|---|---|
| Airport | Comodoro Arturo Merino Benítez International Airport (SCEL) |
| Time | Latitude | Longitude | Altitude | Speed | Heading |
|---|---|---|---|---|---|
| 2026-05-07 21:02 | -33.01642 | -72.17892 | 16000 ft | 334 kts | 71° |
| 2026-05-07 21:02 | -33.00942 | -72.15264 | 16000 ft | 334 kts | 71° |
| 2026-05-07 21:02 | -33.00239 | -72.12626 | 16000 ft | 334 kts | 71° |
| 2026-05-07 21:02 | -32.99535 | -72.09992 | 16000 ft | 334 kts | 71° |
| 2026-05-07 21:03 | -32.98832 | -72.07359 | 16000 ft | 334 kts | 71° |
| 2026-05-07 21:03 | -32.98128 | -72.04730 | 16000 ft | 334 kts | 71° |
| 2026-05-07 21:03 | -32.97423 | -72.02095 | 16000 ft | 334 kts | 71° |
| 2026-05-07 21:03 | -32.96717 | -71.99463 | 16000 ft | 334 kts | 71° |
| 2026-05-07 21:04 | -32.96013 | -71.96837 | 16000 ft | 334 kts | 71° |
| 2026-05-07 21:04 | -32.95305 | -71.94201 | 16000 ft | 334 kts | 71° |
| 2026-05-07 21:04 | -32.94599 | -71.91577 | 16000 ft | 334 kts | 71° |
| 2026-05-07 21:04 | -32.93894 | -71.88954 | 16000 ft | 334 kts | 71° |
| 2026-05-07 21:05 | -32.93214 | -71.86431 | 16000 ft | 334 kts | 71° |
| 2026-05-07 21:05 | -32.92504 | -71.83797 | 16000 ft | 334 kts | 71° |
| 2026-05-07 21:05 | -32.91796 | -71.81173 | 16000 ft | 334 kts | 71° |
| 2026-05-07 21:05 | -32.91084 | -71.78536 | 16000 ft | 334 kts | 71° |
| 2026-05-07 21:06 | -32.90375 | -71.75913 | 16000 ft | 334 kts | 71° |
| 2026-05-07 21:06 | -32.89663 | -71.73282 | 16000 ft | 334 kts | 71° |
| 2026-05-07 21:06 | -32.88954 | -71.70665 | 16000 ft | 334 kts | 71° |
| 2026-05-07 21:06 | -32.88249 | -71.68064 | 16000 ft | 334 kts | 71° |
| 2026-05-07 21:07 | -32.87529 | -71.65411 | 16000 ft | 334 kts | 71° |
| 2026-05-07 21:07 | -32.86815 | -71.62781 | 16000 ft | 334 kts | 71° |
| 2026-05-07 21:07 | -32.86103 | -71.60161 | 16000 ft | 334 kts | 71° |
| 2026-05-07 21:07 | -32.85392 | -71.57533 | 15999 ft | 334 kts | 71° |
| 2026-05-07 21:08 | -32.84859 | -71.54844 | 16000 ft | 335 kts | 78° |
| 2026-05-07 21:08 | -32.84539 | -71.52099 | 16001 ft | 335 kts | 83° |
| 2026-05-07 21:08 | -32.84358 | -71.49343 | 16001 ft | 335 kts | 86° |
| 2026-05-07 21:08 | -32.84264 | -71.46576 | 16001 ft | 335 kts | 88° |
| 2026-05-07 21:09 | -32.84235 | -71.43802 | 15988 ft | 336 kts | 91° |
| 2026-05-07 21:09 | -32.84411 | -71.41016 | 15666 ft | 340 kts | 97° |
| 2026-05-07 21:09 | -32.84735 | -71.38231 | 15226 ft | 340 kts | 99° |
| 2026-05-07 21:09 | -32.85117 | -71.35476 | 14776 ft | 337 kts | 100° |
| 2026-05-07 21:10 | -32.85520 | -71.32744 | 14325 ft | 334 kts | 101° |
| 2026-05-07 21:10 | -32.85927 | -71.30048 | 13876 ft | 331 kts | 101° |
| 2026-05-07 21:10 | -32.86335 | -71.27364 | 13425 ft | 328 kts | 101° |
| 2026-05-07 21:10 | -32.86739 | -71.24707 | 12974 ft | 326 kts | 101° |
| 2026-05-07 21:11 | -32.87140 | -71.22074 | 12525 ft | 323 kts | 101° |
| 2026-05-07 21:11 | -32.87539 | -71.19451 | 12151 ft | 318 kts | 101° |
| 2026-05-07 21:11 | -32.88311 | -71.14348 | 12008 ft | 312 kts | 101° |
| 2026-05-07 21:12 | -32.88695 | -71.11805 | 12002 ft | 313 kts | 101° |
| 2026-05-07 21:12 | -32.89079 | -71.09257 | 12001 ft | 314 kts | 101° |
| 2026-05-07 21:12 | -32.89463 | -71.06699 | 12000 ft | 314 kts | 101° |
| 2026-05-07 21:12 | -32.89847 | -71.04143 | 12000 ft | 314 kts | 101° |
| 2026-05-07 21:13 | -32.90231 | -71.01580 | 12000 ft | 315 kts | 101° |
| 2026-05-07 21:13 | -32.90613 | -70.99021 | 12000 ft | 315 kts | 101° |
| 2026-05-07 21:13 | -32.90996 | -70.96456 | 12000 ft | 315 kts | 101° |
| 2026-05-07 21:13 | -32.91378 | -70.93892 | 12000 ft | 315 kts | 101° |
| 2026-05-07 21:14 | -32.91757 | -70.91339 | 12000 ft | 315 kts | 101° |
| 2026-05-07 21:14 | -32.92138 | -70.88769 | 12000 ft | 315 kts | 101° |
| 2026-05-07 21:14 | -32.92517 | -70.86208 | 12000 ft | 315 kts | 101° |
| 2026-05-07 21:14 | -32.92897 | -70.83636 | 12000 ft | 315 kts | 101° |
| 2026-05-07 21:15 | -32.93277 | -70.81080 | 11999 ft | 315 kts | 101° |
| 2026-05-07 21:15 | -32.93999 | -70.78610 | 11717 ft | 319 kts | 120° |
| 2026-05-07 21:15 | -32.95383 | -70.76571 | 11137 ft | 316 kts | 141° |
| 2026-05-07 21:15 | -32.97243 | -70.75269 | 10523 ft | 307 kts | 162° |
| 2026-05-07 21:16 | -32.99272 | -70.74578 | 9914 ft | 301 kts | 171° |
| 2026-05-07 21:16 | -33.01305 | -70.74145 | 9292 ft | 295 kts | 175° |
| 2026-05-07 21:16 | -33.03321 | -70.73947 | 8659 ft | 287 kts | 185° |
| 2026-05-07 21:16 | -33.05186 | -70.74159 | 8076 ft | 281 kts | 192° |
| 2026-05-07 21:17 | -33.06883 | -70.74506 | 7523 ft | 277 kts | 194° |
| 2026-05-07 21:17 | -33.08769 | -70.74960 | 6765 ft | 276 kts | 196° |
| 2026-05-07 21:17 | -33.10649 | -70.75447 | 5884 ft | 277 kts | 195° |
| 2026-05-07 21:17 | -33.12518 | -70.75981 | 5014 ft | 278 kts | 195° |
| 2026-05-07 21:18 | -33.14386 | -70.76584 | 4140 ft | 277 kts | 195° |
| 2026-05-07 21:18 | -33.16202 | -70.77209 | 3301 ft | 253 kts | 196° |
| 2026-05-07 21:18 | -33.17784 | -70.77796 | 3480 ft | 237 kts | 199° |
| 2026-05-07 21:18 | -33.19254 | -70.78545 | 3492 ft | 226 kts | 204° |
| 2026-05-07 21:19 | -33.20698 | -70.79256 | 3496 ft | 224 kts | 200° |
| 2026-05-07 21:19 | -33.22200 | -70.79737 | 3497 ft | 223 kts | 191° |
| 2026-05-07 21:19 | -33.23733 | -70.79909 | 3499 ft | 222 kts | 181° |
| 2026-05-07 21:19 | -33.25268 | -70.79788 | 3502 ft | 221 kts | 173° |
| 2026-05-07 21:20 | -33.26786 | -70.79500 | 3501 ft | 221 kts | 170° |
| 2026-05-07 21:20 | -33.28312 | -70.79209 | 3386 ft | 225 kts | 172° |
| 2026-05-07 21:20 | -33.29868 | -70.79040 | 3028 ft | 228 kts | 176° |
| 2026-05-07 21:20 | -33.31386 | -70.79013 | 2917 ft | 202 kts | 180° |
| 2026-05-07 21:21 | -33.32790 | -70.78998 | 2511 ft | 202 kts | 178° |
| 2026-05-07 21:21 | -33.34117 | -70.78905 | 2182 ft | 182 kts | 176° |
| 2026-05-07 21:21 | -33.35331 | -70.78823 | 1942 ft | 169 kts | 176° |
| 2026-05-07 21:21 | -33.36480 | -70.78748 | 1714 ft | 164 kts | 177° |
| 2026-05-07 21:22 | -33.37537 | -70.78690 | 1583 ft | 133 kts | 177° |
| 2026-05-07 21:22 | -33.38294 | -70.78649 | 1562 ft | 79 kts | 176° |
| 2026-05-07 21:22 | -33.38629 | -70.78624 | 1562 ft | 29 kts | 176° |
| 2026-05-07 21:22 | -33.38745 | -70.78616 | 1562 ft | 10 kts | 176° |
| 2026-05-07 21:23 | -33.38843 | -70.78608 | 1562 ft | 18 kts | 176° |
| 2026-05-07 21:23 | -33.38990 | -70.78598 | 1562 ft | 21 kts | 176° |
| 2026-05-07 21:23 | -33.39080 | -70.78616 | 1562 ft | 10 kts | 206° |
| 2026-05-07 21:23 | -33.39155 | -70.78660 | 1563 ft | 15 kts | 207° |
| 2026-05-07 21:24 | -33.39251 | -70.78718 | 1563 ft | 12 kts | 207° |
| 2026-05-07 21:24 | -33.39302 | -70.78770 | 1563 ft | 5 kts | 247° |
| 2026-05-07 21:24 | -33.39302 | -70.78778 | 1563 ft | 1 kts | 293° |
| 2026-05-07 21:24 | -33.39289 | -70.78789 | 1563 ft | 4 kts | 332° |
| 2026-05-07 21:25 | -33.39249 | -70.78814 | 1563 ft | 1 kts | 345° |
| 2026-05-07 21:25 | -33.39220 | -70.78816 | 1563 ft | 8 kts | 356° |
| 2026-05-07 21:25 | -33.39141 | -70.78817 | 1563 ft | 15 kts | 2° |
| 2026-05-07 21:25 | -33.39048 | -70.78814 | 1563 ft | 11 kts | 0° |
| 2026-05-07 21:26 | -33.38963 | -70.78817 | 1563 ft | 16 kts | 358° |
| 2026-05-07 21:26 | -33.38829 | -70.78823 | 1563 ft | 23 kts | 358° |
| 2026-05-07 21:26 | -33.38681 | -70.78831 | 1563 ft | 21 kts | 357° |
| 2026-05-07 21:26 | -33.38541 | -70.78840 | 1563 ft | 19 kts | 356° |
| 2026-05-07 21:27 | -33.38399 | -70.78851 | 1563 ft | 17 kts | 353° |
| 2026-05-07 21:27 | -33.38337 | -70.78887 | 1563 ft | 9 kts | 323° |
| 2026-05-07 21:27 | -33.38265 | -70.78951 | 1563 ft | 16 kts | 323° |
| 2026-05-07 21:27 | -33.38162 | -70.79038 | 1563 ft | 18 kts | 325° |
| 2026-05-07 21:28 | -33.38077 | -70.79109 | 1563 ft | 16 kts | 325° |
| 2026-05-07 21:28 | -33.37988 | -70.79184 | 1563 ft | 12 kts | 325° |
| 2026-05-07 21:28 | -33.37930 | -70.79233 | 1563 ft | 12 kts | 324° |
| 2026-05-07 21:28 | -33.37900 | -70.79283 | 1563 ft | 5 kts | 279° |
| 2026-05-07 21:29 | -33.37913 | -70.79335 | 1563 ft | 13 kts | 235° |
| 2026-05-07 21:29 | -33.37931 | -70.79390 | 1563 ft | 6 kts | 272° |
| 2026-05-07 21:29 | -33.37908 | -70.79422 | 1563 ft | 5 kts | 325° |
| 2026-05-07 21:29 | -33.37900 | -70.79428 | 1563 ft | 0 kts | 325° |